createdAt,value
2023-02-25T00:04:52.755Z,1005.08
2023-02-25T00:09:59.921Z,1004.95
2023-02-25T00:15:07.225Z,1005.06
2023-02-25T00:20:14.402Z,1005.10
2023-02-25T00:25:21.573Z,1005.12
2023-02-25T00:30:28.796Z,1005.07
2023-02-25T00:35:35.951Z,1005.39
2023-02-25T00:40:43.145Z,1005.54
2023-02-25T00:45:50.327Z,1005.67
2023-02-25T00:50:57.504Z,1005.73
2023-02-25T00:56:04.668Z,1005.83
2023-02-25T01:01:11.893Z,1005.77
2023-02-25T01:06:19.468Z,1005.53
2023-02-25T01:11:26.327Z,1005.37
2023-02-25T01:16:33.627Z,1005.55
2023-02-25T01:21:40.702Z,1005.72
2023-02-25T01:26:47.875Z,1005.69
2023-02-25T01:31:55.355Z,1005.58
2023-02-25T01:37:02.302Z,1005.49
2023-02-25T01:42:09.432Z,1005.60
2023-02-25T01:47:16.644Z,1005.61
2023-02-25T01:52:23.911Z,1005.74
2023-02-25T01:57:31.095Z,1005.89
2023-02-25T02:02:38.366Z,1005.85
2023-02-25T02:07:45.457Z,1005.75
2023-02-25T02:12:52.763Z,1005.77
2023-02-25T02:17:59.961Z,1006.12
2023-02-25T02:23:07.167Z,1006.02
2023-02-25T02:28:14.414Z,1006.00
2023-02-25T02:33:21.624Z,1005.95
2023-02-25T02:38:28.787Z,1005.99
2023-02-25T02:43:35.950Z,1006.01
2023-02-25T02:48:43.162Z,1005.98
2023-02-25T02:53:50.325Z,1005.85
2023-02-25T02:58:57.570Z,1005.92
2023-02-25T03:04:04.945Z,1006.00
2023-02-25T03:09:11.923Z,1006.14
2023-02-25T03:14:19.181Z,1006.30
2023-02-25T03:19:26.360Z,1006.18
2023-02-25T03:24:33.548Z,1006.36
2023-02-25T03:29:40.732Z,1006.39
2023-02-25T03:34:47.942Z,1006.44
2023-02-25T03:39:55.142Z,1006.43
2023-02-25T03:45:02.369Z,1006.53
2023-02-25T03:50:09.607Z,1006.57
2023-02-25T03:55:16.733Z,1006.58
2023-02-25T04:00:23.917Z,1006.70
2023-02-25T04:05:31.131Z,1006.65
2023-02-25T04:10:38.289Z,1006.81
2023-02-25T04:15:45.497Z,1006.71
2023-02-25T04:20:52.689Z,1006.72
2023-02-25T04:25:59.827Z,1006.83
2023-02-25T04:31:07.280Z,1006.89
2023-02-25T04:36:14.225Z,1006.83
2023-02-25T04:41:21.403Z,1006.76
2023-02-25T04:46:28.600Z,1006.76
2023-02-25T04:51:35.783Z,1006.71
2023-02-25T04:56:42.955Z,1006.63
2023-02-25T05:01:50.193Z,1006.58
2023-02-25T05:06:57.363Z,1006.60
2023-02-25T05:12:04.537Z,1006.64
2023-02-25T05:17:11.711Z,1006.66
2023-02-25T05:22:18.919Z,1006.71
2023-02-25T05:27:26.098Z,1006.72
2023-02-25T05:32:33.545Z,1006.70
2023-02-25T05:37:40.580Z,1006.62
2023-02-25T05:42:47.709Z,1006.59
2023-02-25T05:47:54.927Z,1006.60
2023-02-25T05:53:02.160Z,1006.55
2023-02-25T05:58:09.387Z,1006.55
2023-02-25T06:03:16.589Z,1006.60
2023-02-25T06:08:23.782Z,1006.64
2023-02-25T06:13:30.943Z,1006.59
2023-02-25T06:18:38.122Z,1006.65
2023-02-25T06:23:45.335Z,1006.59
2023-02-25T06:28:52.492Z,1006.72
2023-02-25T06:33:59.658Z,1006.73
2023-02-25T06:39:06.889Z,1006.79
2023-02-25T06:44:15.857Z,1006.82
2023-02-25T06:49:21.204Z,1006.90
2023-02-25T06:54:28.385Z,1006.91
2023-02-25T06:59:35.565Z,1007.00
2023-02-25T07:04:44.134Z,1006.96
2023-02-25T07:09:49.965Z,1006.96
2023-02-25T07:14:57.216Z,1006.88
2023-02-25T07:20:04.412Z,1006.90
2023-02-25T07:25:11.706Z,1006.83
2023-02-25T07:30:18.782Z,1006.76
2023-02-25T07:35:26.204Z,1006.85
2023-02-25T07:40:33.474Z,1006.87
2023-02-25T07:45:40.644Z,1007.04
2023-02-25T07:50:47.884Z,1007.24
2023-02-25T07:55:55.153Z,1007.22
2023-02-25T08:01:02.310Z,1007.11
2023-02-25T08:06:09.488Z,1007.08
2023-02-25T08:11:16.671Z,1007.04
2023-02-25T08:16:23.986Z,1007.01
2023-02-25T08:21:31.054Z,1006.97
2023-02-25T08:26:38.273Z,1006.87
2023-02-25T08:31:45.618Z,1006.84
2023-02-25T08:36:52.692Z,1006.79
2023-02-25T08:41:59.902Z,1006.76
2023-02-25T08:47:07.175Z,1006.84
2023-02-25T08:52:14.248Z,1006.83
2023-02-25T08:57:21.441Z,1006.77
2023-02-25T09:02:28.605Z,1006.80
2023-02-25T09:07:36.016Z,1006.77
2023-02-25T09:12:43.219Z,1006.79
2023-02-25T09:17:50.415Z,1006.76
2023-02-25T09:22:57.660Z,1006.65
2023-02-25T09:28:04.869Z,1006.71
2023-02-25T09:33:12.149Z,1006.73
2023-02-25T09:38:19.310Z,1006.70
2023-02-25T09:43:26.586Z,1006.67
2023-02-25T09:48:33.673Z,1006.64
2023-02-25T09:53:40.859Z,1006.67
2023-02-25T09:58:48.069Z,1006.63
2023-02-25T10:03:55.231Z,1006.57
2023-02-25T10:09:02.443Z,1006.56
2023-02-25T10:14:09.764Z,1006.59
2023-02-25T10:19:16.894Z,1006.65
2023-02-25T10:24:24.088Z,1006.60
2023-02-25T10:29:31.284Z,1006.55
2023-02-25T10:34:38.440Z,1006.50
2023-02-25T10:39:45.619Z,1006.46
2023-02-25T10:44:52.865Z,1006.45
2023-02-25T10:50:00.111Z,1006.40
2023-02-25T10:55:07.286Z,1006.35
2023-02-25T11:00:14.487Z,1006.31
2023-02-25T11:05:21.690Z,1006.24
2023-02-25T11:10:28.902Z,1006.19
2023-02-25T11:15:46.872Z,1006.15
2023-02-25T11:20:43.372Z,1006.01
2023-02-25T11:25:50.603Z,1006.03
2023-02-25T11:30:57.886Z,1005.93
2023-02-25T11:36:04.944Z,1005.93
2023-02-25T11:41:12.157Z,1005.87
2023-02-25T11:46:19.423Z,1005.79
2023-02-25T11:51:26.548Z,1005.71
2023-02-25T11:56:33.790Z,1005.66
2023-02-25T12:01:40.986Z,1005.68
2023-02-25T12:06:48.465Z,1005.71
2023-02-25T12:11:55.683Z,1005.57
2023-02-25T12:17:02.980Z,1005.64
2023-02-25T12:22:10.125Z,1005.67
2023-02-25T12:27:17.297Z,1005.63
2023-02-25T12:32:24.548Z,1005.74
2023-02-25T12:37:31.671Z,1005.85
2023-02-25T12:42:38.841Z,1005.80
2023-02-25T12:47:46.106Z,1005.81
2023-02-25T12:52:53.318Z,1005.83
2023-02-25T12:58:00.516Z,1005.87
2023-02-25T13:03:07.769Z,1005.99
2023-02-25T13:08:14.970Z,1006.06
2023-02-25T13:13:22.215Z,1006.05
2023-02-25T13:18:29.500Z,1006.03
2023-02-25T13:23:36.678Z,1006.10
2023-02-25T13:28:44.143Z,1006.02
2023-02-25T13:33:51.535Z,1006.02
2023-02-25T13:38:58.706Z,1006.16
2023-02-25T13:44:05.935Z,1006.15
2023-02-25T13:49:13.202Z,1006.29
2023-02-25T13:54:20.435Z,1006.31
2023-02-25T13:59:27.644Z,1006.38
2023-02-25T14:04:35.143Z,1006.47
2023-02-25T14:09:42.393Z,1006.48
2023-02-25T14:14:49.577Z,1006.56
2023-02-25T14:19:57.038Z,1006.59
2023-02-25T14:25:05.550Z,1006.59
2023-02-25T14:30:12.942Z,1006.62
2023-02-25T14:35:20.234Z,1006.66
2023-02-25T14:40:27.678Z,1006.73
2023-02-25T14:45:35.063Z,1006.76
2023-02-25T14:50:42.624Z,1006.69
2023-02-25T14:55:49.898Z,1006.74
2023-02-25T15:00:57.154Z,1006.75
2023-02-25T15:06:04.673Z,1006.63
2023-02-25T15:11:12.343Z,1006.52
2023-02-25T15:16:19.780Z,1006.52
2023-02-25T15:21:26.990Z,1006.48
2023-02-25T15:26:34.204Z,1006.52
2023-02-25T15:31:41.656Z,1006.55
2023-02-25T15:36:49.115Z,1006.50
2023-02-25T15:41:56.429Z,1006.51
2023-02-25T15:47:03.626Z,1006.56
2023-02-25T15:52:10.821Z,1006.58
2023-02-25T15:57:18.309Z,1006.57
2023-02-25T16:02:25.923Z,1006.66
2023-02-25T16:07:33.573Z,1006.62
2023-02-25T16:12:42.159Z,1006.72
2023-02-25T16:17:48.533Z,1006.73
2023-02-25T16:22:56.018Z,1006.84
2023-02-25T16:28:03.531Z,1006.83
2023-02-25T16:33:11.008Z,1006.99
2023-02-25T16:38:18.287Z,1006.93
2023-02-25T16:43:25.715Z,1006.99
2023-02-25T16:48:33.335Z,1007.09
2023-02-25T16:53:40.910Z,1007.09
2023-02-25T16:58:48.453Z,1007.19
2023-02-25T17:03:56.093Z,1007.23
2023-02-25T17:09:03.600Z,1007.24
2023-02-25T17:14:10.997Z,1007.30
2023-02-25T17:19:18.398Z,1007.32
2023-02-25T17:24:25.886Z,1007.38
2023-02-25T17:29:33.424Z,1007.45
2023-02-25T17:34:41.051Z,1007.46
2023-02-25T17:39:48.793Z,1007.51
2023-02-25T17:44:56.371Z,1007.59
2023-02-25T17:50:03.986Z,1007.64
2023-02-25T17:55:11.420Z,1007.64
2023-02-25T18:00:18.891Z,1007.68
2023-02-25T18:05:26.524Z,1007.79
2023-02-25T18:10:34.170Z,1007.82
2023-02-25T18:15:42.911Z,1007.76
2023-02-25T18:20:50.498Z,1007.73
2023-02-25T18:25:58.135Z,1007.75
2023-02-25T18:31:05.735Z,1007.70
2023-02-25T18:36:13.021Z,1007.65
2023-02-25T18:41:20.669Z,1007.71
2023-02-25T18:46:28.488Z,1007.70
2023-02-25T18:51:35.972Z,1007.64
2023-02-25T18:56:43.610Z,1007.59
2023-02-25T19:01:51.309Z,1007.59
2023-02-25T19:06:58.708Z,1007.63
2023-02-25T19:12:06.351Z,1007.54
2023-02-25T19:17:13.948Z,1007.59
2023-02-25T19:22:21.556Z,1007.58
2023-02-25T19:27:29.198Z,1007.62
2023-02-25T19:32:36.789Z,1007.66
2023-02-25T19:37:44.402Z,1007.63
2023-02-25T19:42:52.043Z,1007.72
2023-02-25T19:47:59.356Z,1007.66
2023-02-25T19:53:06.930Z,1007.64
2023-02-25T19:58:14.533Z,1007.67
2023-02-25T20:03:22.165Z,1007.67
2023-02-25T20:08:29.524Z,1007.68
2023-02-25T20:13:37.009Z,1007.74
2023-02-25T20:18:44.308Z,1007.80
2023-02-25T20:23:51.495Z,1007.79
2023-02-25T20:28:59.036Z,1007.76
2023-02-25T20:34:06.733Z,1007.71
2023-02-25T20:39:14.342Z,1007.72
2023-02-25T20:44:22.291Z,1007.74
2023-02-25T20:49:29.891Z,1007.69
2023-02-25T20:54:37.597Z,1007.72
2023-02-25T20:59:45.226Z,1007.70
2023-02-25T21:04:52.579Z,1007.60
2023-02-25T21:09:59.898Z,1007.59
2023-02-25T21:15:07.471Z,1007.71
2023-02-25T21:20:15.659Z,1007.66
2023-02-25T21:25:23.083Z,1007.71
2023-02-25T21:30:30.850Z,1007.57
2023-02-25T21:35:38.409Z,1007.60
2023-02-25T21:40:46.023Z,1007.67
2023-02-25T21:45:53.437Z,1007.69
2023-02-25T21:51:00.568Z,1007.67
2023-02-25T21:56:08.043Z,1007.78
2023-02-25T22:01:15.771Z,1007.75
2023-02-25T22:06:23.862Z,1007.75
2023-02-25T22:11:30.785Z,1007.75
2023-02-25T22:16:38.503Z,1007.70
2023-02-25T22:21:45.719Z,1007.69
2023-02-25T22:26:52.931Z,1007.64
2023-02-25T22:32:00.421Z,1007.66
2023-02-25T22:37:07.358Z,1007.61
2023-02-25T22:42:14.604Z,1007.60
2023-02-25T22:47:21.812Z,1007.57
2023-02-25T22:52:28.974Z,1007.54
2023-02-25T22:57:36.144Z,1007.64
2023-02-25T23:02:43.390Z,1007.63
2023-02-25T23:07:50.515Z,1007.69
2023-02-25T23:12:57.682Z,1007.77
2023-02-25T23:18:04.925Z,1007.83
2023-02-25T23:23:12.066Z,1007.97
2023-02-25T23:28:19.261Z,1008.12
2023-02-25T23:33:26.458Z,1008.12
2023-02-25T23:38:33.623Z,1008.18
2023-02-25T23:43:40.820Z,1008.21
2023-02-25T23:48:48.020Z,1008.21
2023-02-25T23:53:55.200Z,1008.26
2023-02-25T23:59:02.354Z,1008.20
